Time;durP1;ratioP1;P1;durP2;ratioP2;P2;SDS_P1;SDS_P2;PMS_P1;PMS_P2;Temp;Humidity;BMP_temperature;BMP_pressure;BME280_temperature;BME280_humidity;BME280_pressure;Samples;Min_cycle;Max_cycle;Signal;HPM_P1;HPM_P2
2023/07/18 00:01:50;;;;;;;7.50;5.30;;;;;;;18.58;100.00;97963.27;106915;1278;24083;-77
2023/07/18 00:04:18;;;;;;;10.50;6.10;;;;;;;18.74;100.00;97965.04;106805;1278;22557;-77
2023/07/18 00:06:46;;;;;;;7.50;5.30;;;;;;;18.85;100.00;97968.59;106804;1278;22546;-78
2023/07/18 00:09:15;;;;;;;8.10;6.60;;;;;;;18.75;100.00;97971.92;106972;1278;22637;-77
2023/07/18 00:11:43;;;;;;;10.00;8.50;;;;;;;18.68;100.00;97974.36;106817;1278;25227;-78
2023/07/18 00:14:11;;;;;;;10.70;8.80;;;;;;;18.59;100.00;97971.95;106972;1278;25508;-77
2023/07/18 00:16:39;;;;;;;10.60;7.80;;;;;;;18.49;100.00;97973.40;106964;1278;22641;-77
2023/07/18 00:19:12;;;;;;;10.80;7.80;;;;;;;18.39;100.00;97973.66;106654;1278;25381;-77
2023/07/18 00:21:40;;;;;;;13.10;8.20;;;;;;;18.34;100.00;97974.46;106773;1278;25403;-77
2023/07/18 00:24:09;;;;;;;10.40;7.90;;;;;;;18.38;100.00;97973.27;106751;1278;24200;-77
2023/07/18 00:26:37;;;;;;;8.50;5.50;;;;;;;18.54;100.00;97966.30;106625;1278;25445;-77
2023/07/18 00:29:05;;;;;;;13.00;8.80;;;;;;;18.80;100.00;97972.60;106960;1278;22558;-78
2023/07/18 00:31:34;;;;;;;14.80;9.80;;;;;;;18.72;100.00;97972.77;108647;1278;22627;-76
2023/07/18 00:34:03;;;;;;;10.50;8.30;;;;;;;18.68;100.00;97973.19;108342;1278;22554;-76
2023/07/18 00:36:31;;;;;;;8.30;7.30;;;;;;;18.73;100.00;97975.23;106453;1278;22530;-78
2023/07/18 00:38:59;;;;;;;8.50;7.50;;;;;;;18.79;100.00;97976.25;106820;1278;25243;-77
2023/07/18 00:41:27;;;;;;;8.70;7.30;;;;;;;18.87;100.00;97971.52;106592;1278;24484;-77
2023/07/18 00:43:55;;;;;;;8.40;7.30;;;;;;;19.09;100.00;97970.34;106807;1278;22611;-77
2023/07/18 00:46:24;;;;;;;10.70;8.50;;;;;;;19.29;100.00;97972.85;106632;1278;23120;-77
2023/07/18 00:48:54;;;;;;;10.30;7.60;;;;;;;19.51;100.00;97968.69;106972;1274;25354;-77
2023/07/18 00:51:25;;;;;;;9.70;7.80;;;;;;;19.67;100.00;97964.71;107058;1278;23127;-78
2023/07/18 00:53:53;;;;;;;11.10;7.10;;;;;;;19.77;100.00;97962.52;106906;1278;24440;-78
2023/07/18 00:56:21;;;;;;;8.50;6.40;;;;;;;19.82;100.00;97957.52;106946;1278;25539;-78
2023/07/18 00:58:49;;;;;;;12.20;8.30;;;;;;;19.85;99.95;97956.35;106916;1278;24056;-78
2023/07/18 01:01:17;;;;;;;9.00;7.30;;;;;;;19.78;99.53;97957.83;106952;1278;26660;-78
2023/07/18 01:03:46;;;;;;;9.20;8.30;;;;;;;19.81;99.80;97957.30;106881;1278;22529;-78
2023/07/18 01:06:14;;;;;;;14.80;8.40;;;;;;;19.79;99.68;97958.09;106837;1278;23214;-78
2023/07/18 01:08:42;;;;;;;8.60;7.40;;;;;;;19.70;98.88;97955.54;106748;1278;24348;-78
2023/07/18 01:11:10;;;;;;;11.20;8.60;;;;;;;19.55;99.70;97948.88;106824;1278;24864;-78
2023/07/18 01:13:39;;;;;;;12.00;9.40;;;;;;;19.54;99.26;97954.31;106867;1278;22577;-77
2023/07/18 01:16:07;;;;;;;9.30;6.70;;;;;;;19.30;98.68;97957.90;106604;1278;25337;-77
2023/07/18 01:18:37;;;;;;;10.10;7.20;;;;;;;19.32;100.00;97957.95;106562;1278;26288;-78
2023/07/18 01:21:09;;;;;;;9.80;8.70;;;;;;;19.49;100.00;97957.80;106830;1278;22575;-78
2023/07/18 01:23:37;;;;;;;11.20;9.60;;;;;;;19.67;100.00;97960.15;106834;1278;22574;-78
2023/07/18 01:26:05;;;;;;;12.90;7.50;;;;;;;19.78;99.77;97957.27;106798;1278;25346;-78
2023/07/18 01:28:33;;;;;;;12.90;10.20;;;;;;;19.74;99.43;97958.30;106829;1278;25403;-79
2023/07/18 01:31:01;;;;;;;11.10;8.70;;;;;;;19.82;99.86;97956.27;106901;1278;22612;-78
2023/07/18 01:33:29;;;;;;;8.70;7.80;;;;;;;19.88;99.45;97953.13;106757;1276;24399;-78
2023/07/18 01:35:57;;;;;;;10.30;7.70;;;;;;;19.88;98.71;97952.04;106914;1278;24369;-78
2023/07/18 01:38:29;;;;;;;16.10;13.70;;;;;;;19.80;98.27;97954.06;106861;1278;25479;-78
2023/07/18 01:40:59;;;;;;;15.30;13.30;;;;;;;19.57;97.54;97953.69;106795;1278;22577;-78
2023/07/18 01:43:27;;;;;;;12.50;11.20;;;;;;;19.39;97.81;97952.34;106915;1278;23615;-78
2023/07/18 01:46:01;;;;;;;14.40;12.40;;;;;;;19.26;97.99;97957.27;106884;1278;24227;-78
2023/07/18 01:48:29;;;;;;;12.40;11.10;;;;;;;19.03;97.16;97969.42;106926;1278;23936;-78
2023/07/18 01:50:58;;;;;;;17.00;15.30;;;;;;;18.47;96.54;97991.34;106885;1278;22577;-78
2023/07/18 01:53:27;;;;;;;17.20;12.90;;;;;;;18.09;99.59;97976.98;106780;1278;22570;-78
2023/07/18 01:55:59;;;;;;;15.10;13.50;;;;;;;18.11;99.68;97982.94;106912;1278;24203;-78
2023/07/18 01:58:28;;;;;;;16.80;15.20;;;;;;;18.03;100.00;97993.08;106963;1278;25252;-78
2023/07/18 02:00:55;;;;;;;15.20;13.80;;;;;;;17.96;100.00;97985.01;106808;1278;22634;-78
2023/07/18 02:03:24;;;;;;;15.70;14.20;;;;;;;17.99;100.00;97986.95;106849;1278;24245;-78
2023/07/18 02:05:52;;;;;;;16.40;14.80;;;;;;;17.97;100.00;97992.84;106796;1278;22578;-77
2023/07/18 02:08:20;;;;;;;16.20;14.30;;;;;;;17.97;100.00;97989.42;106779;1277;25077;-77
2023/07/18 02:10:48;;;;;;;17.10;15.40;;;;;;;17.98;100.00;97999.00;106911;1278;22535;-78
2023/07/18 02:13:17;;;;;;;16.40;14.80;;;;;;;17.97;100.00;98002.54;109923;1278;22567;-76
2023/07/18 02:15:45;;;;;;;18.40;16.70;;;;;;;17.96;100.00;98000.96;109354;1278;22541;-78
2023/07/18 02:18:13;;;;;;;17.40;15.50;;;;;;;17.95;100.00;98013.33;106924;1278;22587;-77
2023/07/18 02:20:40;;;;;;;22.90;17.50;;;;;;;17.95;100.00;98021.81;106930;1278;22646;-77
2023/07/18 02:23:08;;;;;;;20.20;17.80;;;;;;;17.94;100.00;98026.21;106889;1278;25384;-77
2023/07/18 02:25:39;;;;;;;18.90;17.10;;;;;;;17.95;100.00;98024.79;106976;1278;22633;-77
2023/07/18 02:28:07;;;;;;;19.40;17.70;;;;;;;17.96;100.00;98029.85;106940;1278;24347;-77
2023/07/18 02:30:36;;;;;;;19.90;17.80;;;;;;;17.96;100.00;98032.52;106882;1278;22708;-77
2023/07/18 02:33:07;;;;;;;18.80;16.10;;;;;;;17.99;100.00;98049.59;106853;1278;22581;-77
2023/07/18 02:35:39;;;;;;;17.60;15.80;;;;;;;18.03;100.00;98055.63;106787;1278;22552;-77
2023/07/18 02:38:07;;;;;;;17.20;15.40;;;;;;;18.05;100.00;98058.11;106859;1265;24221;-77
2023/07/18 02:40:35;;;;;;;20.10;18.00;;;;;;;18.12;100.00;98062.30;106843;1278;25479;-77
2023/07/18 02:43:04;;;;;;;22.90;20.80;;;;;;;18.20;100.00;98069.38;106975;1278;25260;-76
2023/07/18 02:45:32;;;;;;;26.50;24.30;;;;;;;18.32;100.00;98075.58;106917;1278;22603;-76
2023/07/18 02:48:00;;;;;;;23.80;21.80;;;;;;;18.38;100.00;98083.39;106940;1278;25473;-77
2023/07/18 02:50:28;;;;;;;23.30;21.10;;;;;;;18.30;100.00;98087.90;106895;1278;23300;-78
2023/07/18 02:52:58;;;;;;;23.30;21.40;;;;;;;18.24;100.00;98095.05;107046;1278;22535;-77
2023/07/18 02:55:27;;;;;;;19.80;17.70;;;;;;;18.07;100.00;98101.10;106915;1278;24392;-77
2023/07/18 02:57:55;;;;;;;17.70;15.90;;;;;;;17.86;100.00;98111.98;106877;1278;22540;-77
2023/07/18 03:00:25;;;;;;;17.20;15.60;;;;;;;17.71;100.00;98118.56;106890;1262;22555;-77
2023/07/18 03:02:54;;;;;;;16.40;14.00;;;;;;;17.61;100.00;98118.77;106877;1278;22530;-77
2023/07/18 03:05:22;;;;;;;14.80;12.30;;;;;;;17.49;100.00;98111.21;106798;1278;25208;-77
2023/07/18 03:07:52;;;;;;;14.10;11.40;;;;;;;17.37;100.00;98110.52;106879;1278;22646;-77
2023/07/18 03:10:21;;;;;;;11.50;10.00;;;;;;;17.27;100.00;98110.56;106755;1278;22648;-77
2023/07/18 03:12:49;;;;;;;12.40;10.20;;;;;;;17.21;100.00;98116.04;106861;1278;24256;-77
2023/07/18 03:15:21;;;;;;;13.80;9.20;;;;;;;17.15;100.00;98120.20;106865;1262;22545;-77
2023/07/18 03:17:49;;;;;;;11.30;9.30;;;;;;;17.13;100.00;98122.44;106857;1278;22523;-78
2023/07/18 03:20:18;;;;;;;11.20;8.40;;;;;;;17.05;100.00;98120.02;106904;1278;23392;-77
2023/07/18 03:22:50;;;;;;;10.10;8.50;;;;;;;16.99;100.00;98126.48;106914;1278;22539;-77
2023/07/18 03:25:20;;;;;;;13.80;8.70;;;;;;;16.92;100.00;98130.64;106795;1278;24367;-77
2023/07/18 03:27:49;;;;;;;10.40;7.40;;;;;;;16.80;100.00;98131.80;106584;1278;26722;-78
2023/07/18 03:30:18;;;;;;;11.40;7.40;;;;;;;16.71;100.00;98138.84;107008;1278;22647;-76
2023/07/18 03:32:46;;;;;;;9.20;6.90;;;;;;;16.62;100.00;98142.52;106651;1278;25051;-77
2023/07/18 03:35:14;;;;;;;9.70;7.50;;;;;;;16.59;100.00;98146.32;107040;1278;22630;-77
2023/07/18 03:37:42;;;;;;;11.90;7.30;;;;;;;16.58;100.00;98151.42;107018;1278;25323;-77
2023/07/18 03:40:15;;;;;;;14.00;7.40;;;;;;;16.56;100.00;98149.29;106961;1278;25149;-77
2023/07/18 03:42:45;;;;;;;12.10;7.80;;;;;;;16.56;99.86;98154.77;106969;1278;22496;-77
2023/07/18 03:45:14;;;;;;;10.60;7.10;;;;;;;16.47;100.00;98164.27;106987;1278;22553;-78
2023/07/18 03:47:43;;;;;;;11.30;7.00;;;;;;;16.43;99.99;98165.39;107049;1278;22469;-77
2023/07/18 03:50:13;;;;;;;15.30;6.20;;;;;;;16.41;99.84;98167.93;106948;1278;25510;-78
2023/07/18 03:52:41;;;;;;;12.60;6.80;;;;;;;16.41;99.91;98167.98;106810;1278;22636;-78
2023/07/18 03:55:10;;;;;;;12.00;7.40;;;;;;;16.38;99.67;98169.38;106891;1278;25315;-78
2023/07/18 03:57:39;;;;;;;10.90;7.10;;;;;;;16.29;99.31;98176.19;106911;1278;24209;-78
2023/07/18 04:00:13;;;;;;;13.40;7.20;;;;;;;16.25;99.56;98181.46;106884;1278;24439;-78
2023/07/18 04:02:42;;;;;;;15.00;7.80;;;;;;;16.24;99.43;98185.37;106844;1278;22729;-77
2023/07/18 04:05:17;;;;;;;12.10;7.30;;;;;;;16.21;99.48;98188.95;106924;1278;22518;-78
2023/07/18 04:07:47;;;;;;;18.90;7.80;;;;;;;16.25;99.56;98193.35;106963;1278;22618;-77
2023/07/18 04:10:15;;;;;;;16.70;7.00;;;;;;;16.32;99.86;98198.50;106913;1278;25305;-77
2023/07/18 04:12:44;;;;;;;11.00;7.50;;;;;;;16.31;98.54;98198.55;106846;1278;22698;-77
2023/07/18 04:15:12;;;;;;;12.90;7.60;;;;;;;16.25;98.49;98204.62;106901;1278;22561;-75
2023/07/18 04:17:41;;;;;;;13.80;6.90;;;;;;;16.31;98.60;98208.65;106884;1278;22814;-76
2023/07/18 04:20:10;;;;;;;15.30;6.90;;;;;;;16.37;98.76;98213.55;106890;1278;24258;-76
2023/07/18 04:22:38;;;;;;;8.50;7.00;;;;;;;16.44;98.55;98214.11;106923;1278;22640;-76
2023/07/18 04:25:06;;;;;;;12.00;7.10;;;;;;;16.47;98.29;98216.20;106526;1278;25410;-76
2023/07/18 04:27:34;;;;;;;13.10;7.10;;;;;;;16.55;98.31;98218.08;106913;1278;22534;-76
2023/07/18 04:30:03;;;;;;;11.60;6.20;;;;;;;16.64;97.56;98219.65;106576;1278;24121;-79
2023/07/18 04:32:31;;;;;;;12.20;7.00;;;;;;;16.64;97.02;98224.76;106904;1278;25464;-79
2023/07/18 04:34:59;;;;;;;11.70;7.70;;;;;;;16.64;96.82;98233.38;108483;1278;22818;-79
2023/07/18 04:37:28;;;;;;;10.50;6.70;;;;;;;16.63;96.33;98244.33;107344;1278;22531;-78
2023/07/18 04:39:56;;;;;;;13.30;6.50;;;;;;;16.69;96.70;98253.03;106910;1278;23839;-81
2023/07/18 04:42:24;;;;;;;17.60;7.40;;;;;;;16.74;96.52;98260.78;106953;1278;22605;-78
2023/07/18 04:44:52;;;;;;;12.70;6.90;;;;;;;16.83;95.63;98269.04;106575;1278;22531;-77
2023/07/18 04:47:20;;;;;;;14.10;7.50;;;;;;;16.85;95.78;98267.72;106980;1278;22537;-77
2023/07/18 04:49:48;;;;;;;22.30;7.50;;;;;;;16.87;95.49;98280.57;106875;1278;22531;-78
2023/07/18 04:52:17;;;;;;;11.00;6.70;;;;;;;16.88;95.04;98288.45;106907;1278;22746;-78
2023/07/18 04:54:45;;;;;;;12.70;7.10;;;;;;;16.92;94.27;98296.14;106836;1278;24251;-77
2023/07/18 04:57:14;;;;;;;11.70;6.60;;;;;;;16.97;94.57;98307.25;106691;1278;175578;-79
2023/07/18 04:59:42;;;;;;;13.80;6.60;;;;;;;17.02;93.83;98308.73;106826;1278;23436;-79
2023/07/18 05:02:10;;;;;;;11.20;6.80;;;;;;;17.02;93.55;98312.34;106829;1278;24245;-78
2023/07/18 05:04:39;;;;;;;9.90;6.40;;;;;;;17.03;92.99;98315.40;106804;1278;22520;-82
2023/07/18 05:07:07;;;;;;;14.60;6.20;;;;;;;17.06;93.40;98311.84;106756;1278;24431;-83
2023/07/18 05:09:35;;;;;;;13.70;6.30;;;;;;;17.12;92.84;98315.80;106794;1278;24206;-85
2023/07/18 05:12:04;;;;;;;13.60;7.40;;;;;;;17.11;91.99;98317.34;106808;1278;25332;-78
2023/07/18 05:14:32;;;;;;;14.50;7.20;;;;;;;17.11;92.20;98320.91;106840;1278;22537;-77
2023/07/18 05:17:00;;;;;;;17.90;7.70;;;;;;;17.14;91.90;98322.57;106526;1278;22593;-82
2023/07/18 05:19:28;;;;;;;11.90;8.20;;;;;;;17.16;92.33;98325.14;106680;1278;22565;-80
2023/07/18 05:21:56;;;;;;;13.70;8.40;;;;;;;17.18;92.98;98325.77;106872;1278;22528;-77
2023/07/18 05:24:24;;;;;;;15.80;8.30;;;;;;;17.24;93.03;98327.10;106539;1278;22791;-77
2023/07/18 05:26:52;;;;;;;15.50;8.30;;;;;;;17.29;92.87;98330.75;106551;1278;24255;-78
2023/07/18 05:29:20;;;;;;;13.80;7.40;;;;;;;17.37;92.83;98332.45;106522;1278;26752;-77
2023/07/18 05:31:48;;;;;;;14.00;7.10;;;;;;;17.38;92.58;98336.48;106581;1278;24210;-77
2023/07/18 05:34:16;;;;;;;12.90;7.40;;;;;;;17.41;92.16;98337.84;106588;1278;22615;-77
2023/07/18 05:36:44;;;;;;;13.50;6.70;;;;;;;17.46;91.66;98339.72;106565;1278;24233;-78
2023/07/18 05:39:12;;;;;;;10.50;6.40;;;;;;;17.49;90.92;98344.77;106837;1278;22573;-78
2023/07/18 05:41:40;;;;;;;12.40;6.50;;;;;;;17.55;90.04;98345.48;106909;1278;22534;-78
2023/07/18 05:44:10;;;;;;;14.30;7.20;;;;;;;17.60;89.52;98342.63;106559;1278;22544;-78
2023/07/18 05:46:38;;;;;;;9.80;6.70;;;;;;;17.66;89.76;98346.15;106874;1278;22549;-78
2023/07/18 05:49:08;;;;;;;11.90;6.20;;;;;;;17.75;89.52;98347.63;106508;1278;22609;-79
2023/07/18 05:51:36;;;;;;;11.20;6.90;;;;;;;17.84;88.52;98349.52;106586;1278;24069;-79
2023/07/18 05:54:04;;;;;;;12.80;6.30;;;;;;;17.89;88.34;98353.13;106878;1278;22580;-79
2023/07/18 05:56:32;;;;;;;12.30;6.60;;;;;;;17.95;87.40;98351.23;106802;1278;24069;-77
2023/07/18 05:59:00;;;;;;;10.20;6.20;;;;;;;17.98;86.88;98352.84;106517;1278;25430;-79
2023/07/18 06:01:29;;;;;;;10.10;6.10;;;;;;;18.03;85.94;98353.14;106618;1278;25374;-77
2023/07/18 06:03:58;;;;;;;11.80;6.40;;;;;;;18.07;85.78;98354.70;106531;1278;22537;-77
2023/07/18 06:06:27;;;;;;;13.50;6.00;;;;;;;18.10;84.01;98360.73;106787;1278;22523;-77
2023/07/18 06:08:54;;;;;;;14.10;5.70;;;;;;;18.11;83.00;98362.72;106573;1278;24219;-78
2023/07/18 06:11:23;;;;;;;9.90;5.70;;;;;;;18.10;81.49;98367.87;106588;1278;22521;-77
2023/07/18 06:13:51;;;;;;;11.60;6.40;;;;;;;18.11;81.17;98367.60;106623;1278;24252;-77
2023/07/18 06:16:19;;;;;;;11.20;5.90;;;;;;;18.16;80.96;98367.38;106591;1278;24222;-77
2023/07/18 06:18:47;;;;;;;9.10;5.30;;;;;;;18.20;80.32;98371.73;106638;1278;24370;-77
2023/07/18 06:21:15;;;;;;;13.60;6.00;;;;;;;18.26;79.75;98368.19;106501;1278;25511;-77
2023/07/18 06:23:44;;;;;;;10.20;6.10;;;;;;;18.33;80.85;98369.70;106598;1278;24189;-78
2023/07/18 06:26:14;;;;;;;11.60;6.00;;;;;;;18.46;80.53;98372.29;106874;1278;22653;-80
2023/07/18 06:28:42;;;;;;;12.70;5.60;;;;;;;18.52;78.92;98374.75;106858;1278;22538;-79
2023/07/18 06:31:10;;;;;;;13.80;5.30;;;;;;;18.55;78.39;98376.18;106860;1278;25301;-78
2023/07/18 06:33:38;;;;;;;13.60;5.70;;;;;;;18.56;77.75;98376.55;106831;1274;22580;-79
2023/07/18 06:36:06;;;;;;;7.30;5.20;;;;;;;18.55;75.99;98380.17;106937;1278;25471;-78
2023/07/18 06:38:34;;;;;;;7.80;5.30;;;;;;;18.52;75.01;98381.46;106486;1278;25531;-78
2023/07/18 06:41:02;;;;;;;11.70;5.90;;;;;;;18.51;76.01;98381.83;106830;1278;22617;-78
2023/07/18 06:43:32;;;;;;;12.20;6.80;;;;;;;18.57;77.25;98389.50;106811;1278;24256;-78
2023/07/18 06:46:00;;;;;;;50.10;21.30;;;;;;;18.71;78.13;98387.73;106514;1278;22655;-78
2023/07/18 06:48:28;;;;;;;14.00;7.00;;;;;;;18.83;78.32;98394.70;106855;1278;22686;-78
2023/07/18 06:50:59;;;;;;;12.10;5.80;;;;;;;18.87;76.99;98397.38;106804;1278;22643;-78
2023/07/18 06:53:27;;;;;;;11.30;6.30;;;;;;;18.86;76.27;98392.72;106845;1278;22942;-78
2023/07/18 06:55:55;;;;;;;9.20;5.90;;;;;;;18.86;76.41;98394.23;106819;1278;22557;-78
2023/07/18 06:58:23;;;;;;;9.90;5.60;;;;;;;18.93;76.78;98394.98;106778;1278;22620;-78
2023/07/18 07:00:51;;;;;;;14.30;7.00;;;;;;;19.01;75.44;98395.80;106822;1278;22584;-78
2023/07/18 07:03:19;;;;;;;12.70;6.00;;;;;;;19.04;76.15;98396.52;106801;1278;22535;-78
2023/07/18 07:05:47;;;;;;;11.30;6.00;;;;;;;19.12;75.47;98399.41;106824;1278;22643;-79
2023/07/18 07:08:18;;;;;;;10.80;5.40;;;;;;;19.19;75.02;98396.27;106509;1278;25268;-79
2023/07/18 07:10:47;;;;;;;11.60;6.80;;;;;;;19.23;74.79;98393.73;106927;1277;22534;-79
2023/07/18 07:13:15;;;;;;;11.60;6.40;;;;;;;19.27;74.62;98396.85;106929;1277;24243;-78
2023/07/18 07:15:43;;;;;;;9.70;5.90;;;;;;;19.32;75.40;98395.39;106890;1277;24383;-78
2023/07/18 07:18:11;;;;;;;11.30;7.20;;;;;;;19.38;74.67;98398.09;106519;1277;22955;-78
2023/07/18 07:20:39;;;;;;;8.50;5.70;;;;;;;19.38;74.10;98397.15;106513;1277;25506;-77
2023/07/18 07:23:07;;;;;;;14.70;6.10;;;;;;;19.36;73.86;98397.65;106628;1277;22573;-77
2023/07/18 07:25:35;;;;;;;15.00;6.80;;;;;;;19.38;74.47;98399.81;106589;1277;22525;-80
2023/07/18 07:28:04;;;;;;;10.60;6.50;;;;;;;19.43;74.12;98397.23;106913;1277;22788;-80
2023/07/18 07:30:32;;;;;;;13.00;6.70;;;;;;;19.44;73.86;98396.80;106909;1265;22529;-80
2023/07/18 07:33:00;;;;;;;14.40;6.50;;;;;;;19.47;73.28;98396.36;106971;1277;22529;-80
2023/07/18 07:35:29;;;;;;;11.60;6.40;;;;;;;19.52;72.71;98397.50;106955;1277;22536;-80
2023/07/18 07:37:59;;;;;;;10.10;5.00;;;;;;;19.55;70.78;98406.15;107048;1277;24233;-81
2023/07/18 07:40:26;;;;;;;10.80;5.50;;;;;;;19.58;70.65;98398.15;106650;1277;25377;-81
2023/07/18 07:42:55;;;;;;;10.60;4.60;;;;;;;19.64;69.27;98403.15;106952;1277;25344;-81
2023/07/18 07:45:23;;;;;;;8.80;4.50;;;;;;;19.70;68.80;98401.04;106878;1277;22640;-79
2023/07/18 07:47:51;;;;;;;9.10;4.30;;;;;;;19.81;67.63;98403.83;106853;1277;22524;-77
2023/07/18 07:50:19;;;;;;;5.80;4.10;;;;;;;19.89;67.28;98405.46;106860;1277;24130;-78
2023/07/18 07:52:47;;;;;;;7.20;4.50;;;;;;;19.98;67.20;98405.09;106893;1277;23228;-78
2023/07/18 07:55:16;;;;;;;7.60;4.50;;;;;;;20.08;67.42;98405.05;106902;1277;24072;-78
2023/07/18 07:57:44;;;;;;;9.10;4.50;;;;;;;20.14;65.11;98402.23;107093;1277;22775;-78
2023/07/18 08:00:12;;;;;;;7.30;4.10;;;;;;;20.10;65.43;98404.10;107043;1261;23146;-78
2023/07/18 08:02:40;;;;;;;6.70;4.30;;;;;;;20.19;65.83;98403.86;107009;1277;22531;-78
2023/07/18 08:05:09;;;;;;;9.50;4.40;;;;;;;20.21;64.58;98405.80;107012;1277;22540;-77
2023/07/18 08:07:38;;;;;;;8.10;4.00;;;;;;;20.21;64.22;98400.26;106629;1278;22654;-78
2023/07/18 08:10:06;;;;;;;8.50;4.20;;;;;;;20.21;62.78;98400.33;106908;1277;24761;-78
2023/07/18 08:12:34;;;;;;;6.10;3.80;;;;;;;20.26;63.52;98398.80;107037;1277;24243;-76
2023/07/18 08:15:02;;;;;;;7.10;4.20;;;;;;;20.31;62.20;98400.28;106996;1277;24209;-78
2023/07/18 08:17:30;;;;;;;7.70;4.50;;;;;;;20.40;62.48;98397.22;107096;1277;22551;-78
2023/07/18 08:19:58;;;;;;;9.40;4.00;;;;;;;20.48;64.37;98393.74;107262;1277;24004;-78
2023/07/18 08:22:26;;;;;;;5.30;3.60;;;;;;;20.64;63.64;98397.25;107023;1277;24078;-78
2023/07/18 08:24:54;;;;;;;17.90;5.10;;;;;;;20.69;62.74;98395.32;107102;1277;22549;-77
2023/07/18 08:27:22;;;;;;;8.40;3.90;;;;;;;20.68;61.60;98397.73;106820;1277;22487;-77
2023/07/18 08:29:50;;;;;;;8.70;4.10;;;;;;;20.73;62.22;98395.11;107054;1278;22528;-78
2023/07/18 08:32:18;;;;;;;44.00;6.40;;;;;;;20.78;61.34;98394.70;106709;1278;25395;-78
2023/07/18 08:34:46;;;;;;;6.40;3.50;;;;;;;20.83;60.95;98393.95;107042;1277;25332;-78
2023/07/18 08:37:14;;;;;;;7.50;4.60;;;;;;;20.89;60.44;98382.91;107058;1277;22991;-78
2023/07/18 08:39:42;;;;;;;5.00;3.60;;;;;;;21.00;58.81;98393.96;107026;1277;22654;-77
2023/07/18 08:42:13;;;;;;;6.30;3.80;;;;;;;21.04;58.31;98393.67;106908;1278;22531;-77
2023/07/18 08:44:44;;;;;;;6.30;3.50;;;;;;;21.10;58.84;98391.14;107028;1277;26638;-77
2023/07/18 08:47:13;;;;;;;6.00;3.60;;;;;;;21.15;59.64;98389.69;107121;1277;24302;-77
2023/07/18 08:49:41;;;;;;;7.50;4.00;;;;;;;21.27;59.24;98387.23;106957;1278;23299;-77
2023/07/18 08:52:09;;;;;;;7.60;4.40;;;;;;;21.45;59.58;98387.64;106728;1277;22553;-77
2023/07/18 08:54:37;;;;;;;7.80;4.00;;;;;;;21.49;56.43;98391.19;106669;1277;25461;-77
2023/07/18 08:57:06;;;;;;;27.30;5.70;;;;;;;21.38;57.37;98392.73;106600;1277;22776;-78
2023/07/18 08:59:35;;;;;;;7.70;3.80;;;;;;;21.44;58.93;98389.42;106945;1277;25358;-78
2023/07/18 09:02:03;;;;;;;7.10;3.80;;;;;;;21.60;58.16;98392.98;106672;1277;24054;-78
2023/07/18 09:04:32;;;;;;;8.80;3.40;;;;;;;21.73;56.89;98393.32;106968;1277;22816;-78
2023/07/18 09:07:01;;;;;;;8.50;3.50;;;;;;;21.76;55.35;98392.90;106915;1277;25393;-78
2023/07/18 09:09:29;;;;;;;6.30;3.50;;;;;;;21.72;53.90;98389.14;106620;1272;22565;-78
2023/07/18 09:11:59;;;;;;;5.80;3.20;;;;;;;21.62;54.10;98388.16;106606;1277;25291;-78
2023/07/18 09:14:33;;;;;;;7.40;3.50;;;;;;;21.60;54.64;98383.41;106796;1277;22727;-77
2023/07/18 09:17:04;;;;;;;59.10;6.90;;;;;;;21.70;55.08;98379.87;106574;1277;22651;-78
2023/07/18 09:19:45;;;;;;;8.20;3.60;;;;;;;21.79;54.86;98377.30;106929;1277;22619;-78
2023/07/18 09:22:15;;;;;;;4.90;3.60;;;;;;;21.81;54.89;98374.04;106970;1277;22566;-78
2023/07/18 09:24:44;;;;;;;5.00;3.30;;;;;;;21.88;55.06;98367.91;106824;1277;22573;-78
2023/07/18 09:27:17;;;;;;;178.60;15.20;;;;;;;22.05;56.11;98367.45;106601;1277;22536;-77
2023/07/18 09:29:47;;;;;;;7.60;3.80;;;;;;;22.28;55.72;98360.77;106607;1277;22538;-77
2023/07/18 09:32:20;;;;;;;5.30;3.30;;;;;;;22.33;52.73;98366.81;106943;1277;25469;-77
2023/07/18 09:34:52;;;;;;;7.30;3.50;;;;;;;22.24;53.00;98369.25;106874;1277;22537;-77
2023/07/18 09:37:20;;;;;;;9.40;3.80;;;;;;;22.29;53.11;98369.73;106591;1277;22658;-77
2023/07/18 09:39:49;;;;;;;59.40;6.80;;;;;;;22.38;52.09;98369.48;106926;1277;24228;-77
2023/07/18 09:42:19;;;;;;;9.90;3.60;;;;;;;22.41;51.69;98361.88;106484;1277;22524;-77
2023/07/18 09:44:50;;;;;;;9.20;4.00;;;;;;;22.38;51.57;98359.77;106645;1277;22524;-78
2023/07/18 09:47:20;;;;;;;6.00;3.70;;;;;;;22.47;52.02;98361.80;106570;1277;22647;-78
2023/07/18 09:49:49;;;;;;;6.30;3.60;;;;;;;22.47;50.51;98358.83;106589;1277;24283;-78
2023/07/18 09:52:23;;;;;;;10.90;4.50;;;;;;;22.42;51.05;98351.92;106598;1277;24232;-78
2023/07/18 09:54:52;;;;;;;;;;;;;;;22.50;52.46;98349.06;107006;1277;23524;-78
2023/07/18 09:57:21;;;;;;;10.40;3.50;;;;;;;22.61;51.55;98351.45;107002;1277;24381;-77
2023/07/18 09:59:50;;;;;;;6.40;3.60;;;;;;;22.65;51.16;98350.65;106899;1277;22559;-78
2023/07/18 10:02:18;;;;;;;12.20;3.60;;;;;;;22.80;50.47;98362.05;106966;1277;22541;-78
2023/07/18 10:04:48;;;;;;;4.90;3.10;;;;;;;22.87;48.58;98360.81;107012;1277;25226;-78
2023/07/18 10:07:17;;;;;;;6.50;2.80;;;;;;;22.92;46.38;98351.00;107002;1278;22628;-78
2023/07/18 10:09:46;;;;;;;4.30;3.30;;;;;;;22.91;45.38;98348.01;106732;1277;22535;-78
2023/07/18 10:12:14;;;;;;;8.70;3.10;;;;;;;22.85;45.18;98347.45;106741;1277;22603;-78
2023/07/18 10:14:42;;;;;;;5.30;3.00;;;;;;;22.81;46.35;98349.34;107051;1277;22538;-78
2023/07/18 10:17:24;;;;;;;7.70;3.40;;;;;;;22.89;47.24;98343.82;106914;1254;25623;-78
2023/07/18 10:19:53;;;;;;;6.90;3.40;;;;;;;23.00;47.07;98338.20;106765;1277;22541;-77
2023/07/18 10:22:29;;;;;;;8.50;3.40;;;;;;;23.06;46.63;98333.17;107033;1277;22505;-78
2023/07/18 10:25:05;;;;;;;4.40;2.70;;;;;;;23.21;47.39;98332.13;106610;1277;22583;-78
2023/07/18 10:27:38;;;;;;;6.60;3.00;;;;;;;23.32;47.09;98330.00;106891;1277;22523;-77
2023/07/18 10:30:17;;;;;;;11.00;3.60;;;;;;;23.26;46.92;98329.36;106613;1277;23185;-78
2023/07/18 10:32:57;;;;;;;5.70;3.30;;;;;;;23.21;46.35;98325.91;106973;1277;24380;-78
2023/07/18 10:35:27;;;;;;;10.20;4.70;;;;;;;23.18;46.26;98323.83;106975;1277;22621;-77
2023/07/18 10:37:57;;;;;;;5.80;3.50;;;;;;;23.22;47.03;98315.24;107036;1277;22525;-77
2023/07/18 10:40:43;;;;;;;4.90;3.30;;;;;;;23.43;47.35;98311.11;107043;1277;22625;-78
2023/07/18 10:43:18;;;;;;;5.70;3.80;;;;;;;23.57;46.81;98309.49;107185;1275;24412;-78
2023/07/18 10:45:46;;;;;;;8.90;3.70;;;;;;;23.57;44.93;98310.58;106932;1275;25486;-77
2023/07/18 10:48:20;;;;;;;6.70;4.20;;;;;;;23.56;45.68;98308.54;106884;1275;22604;-77
2023/07/18 10:50:49;;;;;;;7.20;3.70;;;;;;;23.63;45.85;98309.32;106834;1275;22541;-78
2023/07/18 10:53:20;;;;;;;7.10;3.50;;;;;;;23.56;45.46;98304.36;106872;1275;22645;-76
2023/07/18 10:55:48;;;;;;;20.00;11.00;;;;;;;23.49;45.59;98301.38;107191;1275;25246;-78
2023/07/18 10:58:19;;;;;;;6.20;3.50;;;;;;;23.59;45.46;98304.71;107065;1275;22518;-78
2023/07/18 11:00:49;;;;;;;5.70;3.50;;;;;;;23.54;45.65;98297.81;107159;1275;22536;-78
2023/07/18 11:03:21;;;;;;;9.40;4.10;;;;;;;23.58;45.36;98291.02;106977;1275;22518;-77
2023/07/18 11:05:50;;;;;;;;;;;;;;;23.52;46.08;98287.59;107016;1275;24252;-77
2023/07/18 11:08:30;;;;;;;;;;;;;;;23.65;46.97;98283.02;107244;1275;23911;-77
2023/07/18 11:10:59;;;;;;;;;;;;;;;23.89;46.60;98282.83;106922;1275;23151;-77
2023/07/18 11:13:37;;;;;;;;;;;;;;;24.10;46.65;98275.08;106948;1275;22601;-78
2023/07/18 11:16:06;;;;;;;;;;;;;;;24.22;45.24;98275.34;107259;1275;25326;-78
2023/07/18 11:18:38;;;;;;;;;;;;;;;24.29;45.28;98269.88;107212;1275;22547;-78
2023/07/18 11:21:07;;;;;;;;;;;;;;;24.37;45.84;98269.96;106975;1275;25316;-77
2023/07/18 11:23:35;;;;;;;;;;;;;;;24.43;43.84;98275.85;106973;1275;23017;-77
2023/07/18 11:26:10;;;;;;;;;;;;;;;24.38;43.06;98273.60;106976;1275;23380;-77
2023/07/18 11:28:39;;;;;;;;;;;;;;;24.33;43.60;98266.77;106976;1275;24357;-79